sensor_id;sensor_type;location;lat;lon;timestamp;P1;durP1;ratioP1;P2;durP2;ratioP2
2177;SDS011;1095;50.992;6.798;2023-04-09T00:01:00;46.28;;;32.92;;
2177;SDS011;1095;50.992;6.798;2023-04-09T00:03:28;46.67;;;31.08;;
2177;SDS011;1095;50.992;6.798;2023-04-09T00:05:54;43.63;;;31.95;;
2177;SDS011;1095;50.992;6.798;2023-04-09T00:08:22;49.53;;;34.55;;
2177;SDS011;1095;50.992;6.798;2023-04-09T00:10:49;47.70;;;34.00;;
2177;SDS011;1095;50.992;6.798;2023-04-09T00:13:16;47.20;;;33.22;;
2177;SDS011;1095;50.992;6.798;2023-04-09T00:15:43;47.50;;;33.47;;
2177;SDS011;1095;50.992;6.798;2023-04-09T00:18:09;46.75;;;34.20;;
2177;SDS011;1095;50.992;6.798;2023-04-09T00:20:36;49.33;;;34.85;;
2177;SDS011;1095;50.992;6.798;2023-04-09T00:23:05;48.45;;;34.50;;
2177;SDS011;1095;50.992;6.798;2023-04-09T00:25:34;48.53;;;35.10;;
2177;SDS011;1095;50.992;6.798;2023-04-09T00:28:01;49.58;;;34.67;;
2177;SDS011;1095;50.992;6.798;2023-04-09T00:30:36;49.38;;;34.83;;
2177;SDS011;1095;50.992;6.798;2023-04-09T00:33:02;49.33;;;35.55;;
2177;SDS011;1095;50.992;6.798;2023-04-09T00:35:29;51.00;;;36.50;;
2177;SDS011;1095;50.992;6.798;2023-04-09T00:37:56;50.75;;;35.53;;
2177;SDS011;1095;50.992;6.798;2023-04-09T00:40:22;51.03;;;37.35;;
2177;SDS011;1095;50.992;6.798;2023-04-09T00:42:50;52.33;;;37.65;;
2177;SDS011;1095;50.992;6.798;2023-04-09T00:45:17;51.63;;;36.20;;
2177;SDS011;1095;50.992;6.798;2023-04-09T00:47:43;53.08;;;36.17;;
2177;SDS011;1095;50.992;6.798;2023-04-09T00:50:10;54.28;;;38.17;;
2177;SDS011;1095;50.992;6.798;2023-04-09T00:52:37;56.53;;;38.10;;
2177;SDS011;1095;50.992;6.798;2023-04-09T00:55:04;56.47;;;39.53;;
2177;SDS011;1095;50.992;6.798;2023-04-09T00:57:31;53.90;;;37.30;;
2177;SDS011;1095;50.992;6.798;2023-04-09T00:59:59;57.15;;;39.45;;
2177;SDS011;1095;50.992;6.798;2023-04-09T01:02:26;55.08;;;38.30;;
2177;SDS011;1095;50.992;6.798;2023-04-09T01:04:54;55.00;;;39.95;;
2177;SDS011;1095;50.992;6.798;2023-04-09T01:07:24;52.28;;;39.38;;
2177;SDS011;1095;50.992;6.798;2023-04-09T01:10:04;51.33;;;37.05;;
2177;SDS011;1095;50.992;6.798;2023-04-09T01:12:40;56.25;;;39.00;;
2177;SDS011;1095;50.992;6.798;2023-04-09T01:15:16;54.40;;;39.85;;
2177;SDS011;1095;50.992;6.798;2023-04-09T01:17:49;57.95;;;40.72;;
2177;SDS011;1095;50.992;6.798;2023-04-09T01:20:20;54.55;;;39.22;;
2177;SDS011;1095;50.992;6.798;2023-04-09T01:22:56;53.40;;;38.15;;
2177;SDS011;1095;50.992;6.798;2023-04-09T01:25:34;52.50;;;38.33;;
2177;SDS011;1095;50.992;6.798;2023-04-09T01:28:15;52.17;;;38.75;;
2177;SDS011;1095;50.992;6.798;2023-04-09T01:30:44;50.40;;;37.28;;
2177;SDS011;1095;50.992;6.798;2023-04-09T01:33:13;54.28;;;37.85;;
2177;SDS011;1095;50.992;6.798;2023-04-09T01:35:42;53.97;;;38.22;;
2177;SDS011;1095;50.992;6.798;2023-04-09T01:38:13;53.88;;;39.05;;
2177;SDS011;1095;50.992;6.798;2023-04-09T01:40:41;54.30;;;38.28;;
2177;SDS011;1095;50.992;6.798;2023-04-09T01:43:08;50.28;;;37.35;;
2177;SDS011;1095;50.992;6.798;2023-04-09T01:45:37;57.55;;;39.33;;
2177;SDS011;1095;50.992;6.798;2023-04-09T01:48:05;53.72;;;37.28;;
2177;SDS011;1095;50.992;6.798;2023-04-09T01:50:32;51.13;;;38.17;;
2177;SDS011;1095;50.992;6.798;2023-04-09T01:52:59;55.63;;;36.90;;
2177;SDS011;1095;50.992;6.798;2023-04-09T01:55:26;54.58;;;37.15;;
2177;SDS011;1095;50.992;6.798;2023-04-09T01:57:53;50.58;;;37.35;;
2177;SDS011;1095;50.992;6.798;2023-04-09T02:00:19;52.17;;;37.38;;
2177;SDS011;1095;50.992;6.798;2023-04-09T02:02:50;53.00;;;37.50;;
2177;SDS011;1095;50.992;6.798;2023-04-09T02:05:20;51.13;;;37.22;;
2177;SDS011;1095;50.992;6.798;2023-04-09T02:07:51;51.03;;;37.95;;
2177;SDS011;1095;50.992;6.798;2023-04-09T02:10:21;53.38;;;37.85;;
2177;SDS011;1095;50.992;6.798;2023-04-09T02:12:51;56.40;;;38.30;;
2177;SDS011;1095;50.992;6.798;2023-04-09T02:15:20;54.95;;;38.95;;
2177;SDS011;1095;50.992;6.798;2023-04-09T02:17:49;52.95;;;38.38;;
2177;SDS011;1095;50.992;6.798;2023-04-09T02:20:16;51.28;;;37.53;;
2177;SDS011;1095;50.992;6.798;2023-04-09T02:22:43;58.05;;;39.58;;
2177;SDS011;1095;50.992;6.798;2023-04-09T02:25:10;57.90;;;39.75;;
2177;SDS011;1095;50.992;6.798;2023-04-09T02:27:37;54.80;;;38.28;;
2177;SDS011;1095;50.992;6.798;2023-04-09T02:30:03;52.40;;;38.33;;
2177;SDS011;1095;50.992;6.798;2023-04-09T02:32:31;54.97;;;38.78;;
2177;SDS011;1095;50.992;6.798;2023-04-09T02:34:59;54.88;;;38.50;;
2177;SDS011;1095;50.992;6.798;2023-04-09T02:37:25;52.83;;;39.00;;
2177;SDS011;1095;50.992;6.798;2023-04-09T02:39:52;53.92;;;37.78;;
2177;SDS011;1095;50.992;6.798;2023-04-09T02:42:18;55.17;;;38.83;;
2177;SDS011;1095;50.992;6.798;2023-04-09T02:44:45;54.75;;;37.17;;
2177;SDS011;1095;50.992;6.798;2023-04-09T02:47:12;56.38;;;38.47;;
2177;SDS011;1095;50.992;6.798;2023-04-09T02:49:39;52.55;;;38.40;;
2177;SDS011;1095;50.992;6.798;2023-04-09T02:52:08;56.90;;;38.15;;
2177;SDS011;1095;50.992;6.798;2023-04-09T02:54:35;51.88;;;38.08;;
2177;SDS011;1095;50.992;6.798;2023-04-09T02:57:01;60.05;;;39.45;;
2177;SDS011;1095;50.992;6.798;2023-04-09T02:59:28;57.05;;;39.63;;
2177;SDS011;1095;50.992;6.798;2023-04-09T03:01:56;57.47;;;40.28;;
2177;SDS011;1095;50.992;6.798;2023-04-09T03:04:23;58.40;;;41.13;;
2177;SDS011;1095;50.992;6.798;2023-04-09T03:06:50;55.75;;;39.63;;
2177;SDS011;1095;50.992;6.798;2023-04-09T03:09:18;58.58;;;41.30;;
2177;SDS011;1095;50.992;6.798;2023-04-09T03:11:44;59.97;;;39.60;;
2177;SDS011;1095;50.992;6.798;2023-04-09T03:14:11;55.67;;;39.60;;
2177;SDS011;1095;50.992;6.798;2023-04-09T03:16:38;59.35;;;40.70;;
2177;SDS011;1095;50.992;6.798;2023-04-09T03:19:04;57.65;;;39.33;;
2177;SDS011;1095;50.992;6.798;2023-04-09T03:21:31;56.35;;;38.83;;
2177;SDS011;1095;50.992;6.798;2023-04-09T03:23:57;54.42;;;37.92;;
2177;SDS011;1095;50.992;6.798;2023-04-09T03:26:25;57.55;;;39.33;;
2177;SDS011;1095;50.992;6.798;2023-04-09T03:28:52;58.92;;;39.63;;
2177;SDS011;1095;50.992;6.798;2023-04-09T03:31:18;53.58;;;37.83;;
2177;SDS011;1095;50.992;6.798;2023-04-09T03:33:45;56.45;;;38.80;;
2177;SDS011;1095;50.992;6.798;2023-04-09T03:36:12;54.25;;;36.97;;
2177;SDS011;1095;50.992;6.798;2023-04-09T03:38:38;56.15;;;37.15;;
2177;SDS011;1095;50.992;6.798;2023-04-09T03:41:05;54.78;;;36.70;;
2177;SDS011;1095;50.992;6.798;2023-04-09T03:43:33;55.78;;;37.63;;
2177;SDS011;1095;50.992;6.798;2023-04-09T03:46:00;56.35;;;37.92;;
2177;SDS011;1095;50.992;6.798;2023-04-09T03:48:26;54.33;;;37.67;;
2177;SDS011;1095;50.992;6.798;2023-04-09T03:50:53;55.42;;;37.67;;
2177;SDS011;1095;50.992;6.798;2023-04-09T03:53:19;55.70;;;37.72;;
2177;SDS011;1095;50.992;6.798;2023-04-09T03:55:46;54.55;;;37.80;;
2177;SDS011;1095;50.992;6.798;2023-04-09T03:58:13;53.75;;;37.53;;
2177;SDS011;1095;50.992;6.798;2023-04-09T04:00:41;59.65;;;37.90;;
2177;SDS011;1095;50.992;6.798;2023-04-09T04:03:07;51.15;;;35.97;;
2177;SDS011;1095;50.992;6.798;2023-04-09T04:05:37;56.15;;;37.53;;
2177;SDS011;1095;50.992;6.798;2023-04-09T04:08:04;53.92;;;36.95;;
2177;SDS011;1095;50.992;6.798;2023-04-09T04:10:32;55.53;;;36.40;;
2177;SDS011;1095;50.992;6.798;2023-04-09T04:12:59;50.15;;;36.15;;
2177;SDS011;1095;50.992;6.798;2023-04-09T04:15:26;52.47;;;36.63;;
2177;SDS011;1095;50.992;6.798;2023-04-09T04:17:54;56.85;;;37.17;;
2177;SDS011;1095;50.992;6.798;2023-04-09T04:20:20;55.97;;;36.90;;
2177;SDS011;1095;50.992;6.798;2023-04-09T04:22:47;52.90;;;37.60;;
2177;SDS011;1095;50.992;6.798;2023-04-09T04:25:13;55.85;;;37.50;;
2177;SDS011;1095;50.992;6.798;2023-04-09T04:27:40;58.80;;;38.92;;
2177;SDS011;1095;50.992;6.798;2023-04-09T04:30:07;59.83;;;38.28;;
2177;SDS011;1095;50.992;6.798;2023-04-09T04:32:34;59.38;;;38.95;;
2177;SDS011;1095;50.992;6.798;2023-04-09T04:35:02;56.95;;;38.67;;
2177;SDS011;1095;50.992;6.798;2023-04-09T04:37:29;58.78;;;38.58;;
2177;SDS011;1095;50.992;6.798;2023-04-09T04:39:56;57.92;;;38.38;;
2177;SDS011;1095;50.992;6.798;2023-04-09T04:42:22;56.65;;;38.42;;
2177;SDS011;1095;50.992;6.798;2023-04-09T04:44:49;58.08;;;38.45;;
2177;SDS011;1095;50.992;6.798;2023-04-09T04:47:16;55.72;;;38.30;;
2177;SDS011;1095;50.992;6.798;2023-04-09T04:49:43;52.70;;;37.38;;
2177;SDS011;1095;50.992;6.798;2023-04-09T04:52:11;52.70;;;36.55;;
2177;SDS011;1095;50.992;6.798;2023-04-09T04:54:38;52.53;;;36.50;;
2177;SDS011;1095;50.992;6.798;2023-04-09T04:57:05;53.88;;;37.28;;
2177;SDS011;1095;50.992;6.798;2023-04-09T04:59:31;48.30;;;35.38;;
2177;SDS011;1095;50.992;6.798;2023-04-09T05:01:58;57.03;;;36.67;;
2177;SDS011;1095;50.992;6.798;2023-04-09T05:04:26;52.00;;;36.15;;
2177;SDS011;1095;50.992;6.798;2023-04-09T05:06:53;51.20;;;35.45;;
2177;SDS011;1095;50.992;6.798;2023-04-09T05:09:21;55.67;;;38.33;;
2177;SDS011;1095;50.992;6.798;2023-04-09T05:11:47;48.70;;;34.47;;
2177;SDS011;1095;50.992;6.798;2023-04-09T05:14:14;48.75;;;35.28;;
2177;SDS011;1095;50.992;6.798;2023-04-09T05:16:40;53.63;;;36.28;;
2177;SDS011;1095;50.992;6.798;2023-04-09T05:19:07;51.28;;;35.50;;
2177;SDS011;1095;50.992;6.798;2023-04-09T05:21:34;52.50;;;35.97;;
2177;SDS011;1095;50.992;6.798;2023-04-09T05:24:00;52.08;;;35.70;;
2177;SDS011;1095;50.992;6.798;2023-04-09T05:26:29;47.85;;;33.28;;
2177;SDS011;1095;50.992;6.798;2023-04-09T05:28:55;48.78;;;34.83;;
2177;SDS011;1095;50.992;6.798;2023-04-09T05:31:22;51.13;;;33.83;;
2177;SDS011;1095;50.992;6.798;2023-04-09T05:33:48;53.40;;;35.20;;
2177;SDS011;1095;50.992;6.798;2023-04-09T05:36:15;47.53;;;34.08;;
2177;SDS011;1095;50.992;6.798;2023-04-09T05:38:43;43.88;;;31.42;;
2177;SDS011;1095;50.992;6.798;2023-04-09T05:41:09;42.42;;;30.38;;
2177;SDS011;1095;50.992;6.798;2023-04-09T05:43:37;42.40;;;30.70;;
2177;SDS011;1095;50.992;6.798;2023-04-09T05:46:04;39.28;;;29.80;;
2177;SDS011;1095;50.992;6.798;2023-04-09T05:48:33;36.90;;;27.70;;
2177;SDS011;1095;50.992;6.798;2023-04-09T05:51:00;43.40;;;32.17;;
2177;SDS011;1095;50.992;6.798;2023-04-09T05:53:27;43.35;;;30.73;;
2177;SDS011;1095;50.992;6.798;2023-04-09T05:55:55;40.40;;;30.77;;
2177;SDS011;1095;50.992;6.798;2023-04-09T05:58:21;40.53;;;29.85;;
2177;SDS011;1095;50.992;6.798;2023-04-09T06:00:49;38.17;;;28.88;;
2177;SDS011;1095;50.992;6.798;2023-04-09T06:03:16;51.38;;;36.45;;
2177;SDS011;1095;50.992;6.798;2023-04-09T06:05:43;47.45;;;36.13;;
2177;SDS011;1095;50.992;6.798;2023-04-09T06:08:10;42.88;;;31.38;;
2177;SDS011;1095;50.992;6.798;2023-04-09T06:10:38;40.42;;;30.27;;
2177;SDS011;1095;50.992;6.798;2023-04-09T06:13:04;38.15;;;28.58;;
2177;SDS011;1095;50.992;6.798;2023-04-09T06:15:31;35.95;;;28.30;;
2177;SDS011;1095;50.992;6.798;2023-04-09T06:17:59;36.42;;;26.88;;
2177;SDS011;1095;50.992;6.798;2023-04-09T06:20:26;33.58;;;24.25;;
2177;SDS011;1095;50.992;6.798;2023-04-09T06:22:52;29.52;;;22.60;;
2177;SDS011;1095;50.992;6.798;2023-04-09T06:25:19;27.23;;;20.83;;
2177;SDS011;1095;50.992;6.798;2023-04-09T06:27:45;24.80;;;20.58;;
2177;SDS011;1095;50.992;6.798;2023-04-09T06:30:12;24.05;;;19.70;;
2177;SDS011;1095;50.992;6.798;2023-04-09T06:32:38;27.17;;;20.42;;
2177;SDS011;1095;50.992;6.798;2023-04-09T06:35:07;24.83;;;20.20;;
2177;SDS011;1095;50.992;6.798;2023-04-09T06:37:34;25.90;;;19.83;;
2177;SDS011;1095;50.992;6.798;2023-04-09T06:40:00;26.17;;;19.73;;
2177;SDS011;1095;50.992;6.798;2023-04-09T06:42:27;24.08;;;19.13;;
2177;SDS011;1095;50.992;6.798;2023-04-09T06:44:54;22.73;;;18.70;;
2177;SDS011;1095;50.992;6.798;2023-04-09T06:47:21;23.85;;;18.38;;
2177;SDS011;1095;50.992;6.798;2023-04-09T06:49:50;23.70;;;17.52;;
2177;SDS011;1095;50.992;6.798;2023-04-09T06:52:20;20.90;;;17.23;;
2177;SDS011;1095;50.992;6.798;2023-04-09T06:54:49;22.05;;;17.17;;
2177;SDS011;1095;50.992;6.798;2023-04-09T06:57:16;21.75;;;16.65;;
2177;SDS011;1095;50.992;6.798;2023-04-09T06:59:43;18.98;;;15.73;;
2177;SDS011;1095;50.992;6.798;2023-04-09T07:02:09;22.30;;;16.67;;
2177;SDS011;1095;50.992;6.798;2023-04-09T07:04:36;19.80;;;14.70;;
2177;SDS011;1095;50.992;6.798;2023-04-09T07:07:02;19.38;;;14.65;;
2177;SDS011;1095;50.992;6.798;2023-04-09T07:09:30;16.83;;;13.30;;
2177;SDS011;1095;50.992;6.798;2023-04-09T07:11:57;17.73;;;13.70;;
2177;SDS011;1095;50.992;6.798;2023-04-09T07:14:24;18.05;;;13.60;;
2177;SDS011;1095;50.992;6.798;2023-04-09T07:16:51;17.35;;;13.82;;
2177;SDS011;1095;50.992;6.798;2023-04-09T07:19:17;18.35;;;13.60;;
2177;SDS011;1095;50.992;6.798;2023-04-09T07:21:44;18.00;;;14.40;;
2177;SDS011;1095;50.992;6.798;2023-04-09T07:24:10;17.30;;;13.60;;
2177;SDS011;1095;50.992;6.798;2023-04-09T07:26:38;19.40;;;14.27;;
2177;SDS011;1095;50.992;6.798;2023-04-09T07:29:11;19.27;;;14.38;;
2177;SDS011;1095;50.992;6.798;2023-04-09T07:31:39;20.23;;;13.90;;
2177;SDS011;1095;50.992;6.798;2023-04-09T07:34:06;18.13;;;13.98;;
2177;SDS011;1095;50.992;6.798;2023-04-09T07:36:33;18.52;;;14.35;;
2177;SDS011;1095;50.992;6.798;2023-04-09T07:39:00;20.20;;;14.98;;
2177;SDS011;1095;50.992;6.798;2023-04-09T07:41:27;18.67;;;14.48;;
2177;SDS011;1095;50.992;6.798;2023-04-09T07:43:55;17.52;;;13.27;;
2177;SDS011;1095;50.992;6.798;2023-04-09T07:46:21;18.23;;;13.63;;
2177;SDS011;1095;50.992;6.798;2023-04-09T07:48:48;15.95;;;12.73;;
2177;SDS011;1095;50.992;6.798;2023-04-09T07:51:14;19.20;;;13.70;;
2177;SDS011;1095;50.992;6.798;2023-04-09T07:53:41;16.42;;;12.60;;
2177;SDS011;1095;50.992;6.798;2023-04-09T07:56:08;18.45;;;12.70;;
2177;SDS011;1095;50.992;6.798;2023-04-09T07:58:35;15.90;;;12.70;;
2177;SDS011;1095;50.992;6.798;2023-04-09T08:01:03;18.00;;;13.13;;
2177;SDS011;1095;50.992;6.798;2023-04-09T08:03:30;16.75;;;13.18;;
2177;SDS011;1095;50.992;6.798;2023-04-09T08:05:56;16.65;;;12.30;;
2177;SDS011;1095;50.992;6.798;2023-04-09T08:08:23;16.48;;;12.40;;
2177;SDS011;1095;50.992;6.798;2023-04-09T08:10:50;17.10;;;11.60;;
2177;SDS011;1095;50.992;6.798;2023-04-09T08:13:16;15.07;;;11.85;;
2177;SDS011;1095;50.992;6.798;2023-04-09T08:15:43;13.63;;;10.98;;
2177;SDS011;1095;50.992;6.798;2023-04-09T08:18:11;13.07;;;10.95;;
2177;SDS011;1095;50.992;6.798;2023-04-09T08:20:37;13.95;;;11.20;;
2177;SDS011;1095;50.992;6.798;2023-04-09T08:23:08;14.85;;;10.85;;
2177;SDS011;1095;50.992;6.798;2023-04-09T08:25:35;14.00;;;11.13;;
2177;SDS011;1095;50.992;6.798;2023-04-09T08:28:02;13.45;;;11.13;;
2177;SDS011;1095;50.992;6.798;2023-04-09T08:30:28;14.63;;;11.15;;
2177;SDS011;1095;50.992;6.798;2023-04-09T08:32:58;14.65;;;11.45;;
2177;SDS011;1095;50.992;6.798;2023-04-09T08:35:26;12.88;;;10.38;;
2177;SDS011;1095;50.992;6.798;2023-04-09T08:37:53;12.68;;;10.18;;
2177;SDS011;1095;50.992;6.798;2023-04-09T08:40:20;12.73;;;10.50;;
2177;SDS011;1095;50.992;6.798;2023-04-09T08:42:50;13.32;;;10.32;;
2177;SDS011;1095;50.992;6.798;2023-04-09T08:45:20;12.00;;;10.32;;
2177;SDS011;1095;50.992;6.798;2023-04-09T08:47:48;11.85;;;9.88;;
2177;SDS011;1095;50.992;6.798;2023-04-09T08:50:16;10.95;;;9.32;;
2177;SDS011;1095;50.992;6.798;2023-04-09T08:52:44;11.80;;;9.45;;
2177;SDS011;1095;50.992;6.798;2023-04-09T08:55:12;11.75;;;9.82;;
2177;SDS011;1095;50.992;6.798;2023-04-09T08:57:39;10.98;;;9.85;;
2177;SDS011;1095;50.992;6.798;2023-04-09T09:00:06;13.07;;;10.45;;
2177;SDS011;1095;50.992;6.798;2023-04-09T09:02:33;10.77;;;9.25;;
2177;SDS011;1095;50.992;6.798;2023-04-09T09:05:00;11.43;;;8.40;;
2177;SDS011;1095;50.992;6.798;2023-04-09T09:07:29;13.43;;;9.02;;
2177;SDS011;1095;50.992;6.798;2023-04-09T09:09:58;12.15;;;9.00;;
2177;SDS011;1095;50.992;6.798;2023-04-09T09:12:33;9.73;;;8.05;;
2177;SDS011;1095;50.992;6.798;2023-04-09T09:15:02;10.35;;;8.27;;
2177;SDS011;1095;50.992;6.798;2023-04-09T09:17:31;10.88;;;8.75;;
2177;SDS011;1095;50.992;6.798;2023-04-09T09:19:57;10.65;;;8.35;;
2177;SDS011;1095;50.992;6.798;2023-04-09T09:22:24;10.88;;;8.48;;
2177;SDS011;1095;50.992;6.798;2023-04-09T09:24:51;10.18;;;8.20;;
2177;SDS011;1095;50.992;6.798;2023-04-09T09:30:04;9.20;;;7.22;;
2177;SDS011;1095;50.992;6.798;2023-04-09T09:32:32;9.07;;;7.68;;
2177;SDS011;1095;50.992;6.798;2023-04-09T09:35:01;11.13;;;8.52;;
2177;SDS011;1095;50.992;6.798;2023-04-09T09:37:29;13.15;;;8.30;;
2177;SDS011;1095;50.992;6.798;2023-04-09T09:39:56;10.55;;;8.40;;
2177;SDS011;1095;50.992;6.798;2023-04-09T09:42:23;12.52;;;8.98;;
2177;SDS011;1095;50.992;6.798;2023-04-09T09:44:51;10.10;;;7.93;;
2177;SDS011;1095;50.992;6.798;2023-04-09T09:47:20;9.32;;;7.50;;
2177;SDS011;1095;50.992;6.798;2023-04-09T09:49:49;11.50;;;7.80;;
2177;SDS011;1095;50.992;6.798;2023-04-09T09:52:19;9.55;;;7.60;;
2177;SDS011;1095;50.992;6.798;2023-04-09T09:54:52;10.10;;;7.55;;
2177;SDS011;1095;50.992;6.798;2023-04-09T09:57:23;11.05;;;7.80;;
2177;SDS011;1095;50.992;6.798;2023-04-09T10:00:03;11.00;;;8.18;;
2177;SDS011;1095;50.992;6.798;2023-04-09T10:02:53;9.50;;;7.78;;
2177;SDS011;1095;50.992;6.798;2023-04-09T10:05:23;9.98;;;7.85;;
2177;SDS011;1095;50.992;6.798;2023-04-09T10:07:51;10.77;;;8.75;;
2177;SDS011;1095;50.992;6.798;2023-04-09T10:10:20;10.05;;;7.60;;
2177;SDS011;1095;50.992;6.798;2023-04-09T10:12:47;9.93;;;7.75;;
2177;SDS011;1095;50.992;6.798;2023-04-09T10:15:16;10.13;;;8.00;;
2177;SDS011;1095;50.992;6.798;2023-04-09T10:17:44;10.80;;;7.88;;
2177;SDS011;1095;50.992;6.798;2023-04-09T10:20:13;10.50;;;8.15;;
2177;SDS011;1095;50.992;6.798;2023-04-09T10:22:45;9.95;;;8.13;;
2177;SDS011;1095;50.992;6.798;2023-04-09T10:25:15;11.30;;;8.13;;
2177;SDS011;1095;50.992;6.798;2023-04-09T10:27:42;15.40;;;8.95;;
2177;SDS011;1095;50.992;6.798;2023-04-09T10:30:14;9.98;;;7.68;;
2177;SDS011;1095;50.992;6.798;2023-04-09T10:33:07;10.68;;;8.40;;
2177;SDS011;1095;50.992;6.798;2023-04-09T10:35:35;13.18;;;8.70;;
2177;SDS011;1095;50.992;6.798;2023-04-09T10:38:02;9.77;;;8.30;;
2177;SDS011;1095;50.992;6.798;2023-04-09T10:40:28;11.77;;;8.32;;
2177;SDS011;1095;50.992;6.798;2023-04-09T10:42:55;11.73;;;9.07;;
2177;SDS011;1095;50.992;6.798;2023-04-09T10:45:25;10.23;;;8.50;;
2177;SDS011;1095;50.992;6.798;2023-04-09T10:48:09;10.60;;;8.50;;
2177;SDS011;1095;50.992;6.798;2023-04-09T10:50:38;11.35;;;8.88;;
2177;SDS011;1095;50.992;6.798;2023-04-09T10:53:05;9.93;;;8.32;;
2177;SDS011;1095;50.992;6.798;2023-04-09T10:55:33;12.30;;;8.82;;
2177;SDS011;1095;50.992;6.798;2023-04-09T10:58:02;10.30;;;8.35;;
2177;SDS011;1095;50.992;6.798;2023-04-09T11:00:29;10.35;;;8.63;;
2177;SDS011;1095;50.992;6.798;2023-04-09T11:03:02;11.55;;;8.50;;
2177;SDS011;1095;50.992;6.798;2023-04-09T11:05:40;10.90;;;8.75;;
2177;SDS011;1095;50.992;6.798;2023-04-09T11:08:09;10.43;;;8.77;;
2177;SDS011;1095;50.992;6.798;2023-04-09T11:10:38;10.63;;;8.95;;
2177;SDS011;1095;50.992;6.798;2023-04-09T11:13:10;11.25;;;8.85;;
2177;SDS011;1095;50.992;6.798;2023-04-09T11:15:37;12.50;;;8.55;;
2177;SDS011;1095;50.992;6.798;2023-04-09T11:18:05;11.95;;;8.65;;
2177;SDS011;1095;50.992;6.798;2023-04-09T11:20:33;11.63;;;8.75;;
2177;SDS011;1095;50.992;6.798;2023-04-09T11:23:01;12.43;;;9.60;;
2177;SDS011;1095;50.992;6.798;2023-04-09T11:25:29;12.90;;;9.30;;
2177;SDS011;1095;50.992;6.798;2023-04-09T11:27:57;11.68;;;9.38;;
2177;SDS011;1095;50.992;6.798;2023-04-09T11:30:24;11.73;;;9.18;;
2177;SDS011;1095;50.992;6.798;2023-04-09T11:32:52;10.18;;;8.25;;
2177;SDS011;1095;50.992;6.798;2023-04-09T11:35:22;10.18;;;8.40;;
2177;SDS011;1095;50.992;6.798;2023-04-09T11:37:49;10.75;;;9.23;;
2177;SDS011;1095;50.992;6.798;2023-04-09T11:40:17;12.75;;;9.75;;
2177;SDS011;1095;50.992;6.798;2023-04-09T11:42:45;12.80;;;9.68;;
2177;SDS011;1095;50.992;6.798;2023-04-09T11:45:14;11.68;;;9.20;;
2177;SDS011;1095;50.992;6.798;2023-04-09T11:47:42;15.52;;;10.10;;
2177;SDS011;1095;50.992;6.798;2023-04-09T11:50:11;12.95;;;10.20;;
2177;SDS011;1095;50.992;6.798;2023-04-09T11:52:39;12.60;;;9.48;;
2177;SDS011;1095;50.992;6.798;2023-04-09T11:55:07;13.35;;;10.05;;
2177;SDS011;1095;50.992;6.798;2023-04-09T11:57:38;12.32;;;10.00;;
2177;SDS011;1095;50.992;6.798;2023-04-09T12:00:07;11.90;;;9.13;;
2177;SDS011;1095;50.992;6.798;2023-04-09T12:02:36;11.57;;;9.82;;
2177;SDS011;1095;50.992;6.798;2023-04-09T12:05:05;12.23;;;9.80;;
2177;SDS011;1095;50.992;6.798;2023-04-09T12:07:33;11.88;;;9.25;;
2177;SDS011;1095;50.992;6.798;2023-04-09T12:10:04;14.70;;;9.18;;
2177;SDS011;1095;50.992;6.798;2023-04-09T12:12:38;11.90;;;9.15;;
2177;SDS011;1095;50.992;6.798;2023-04-09T12:15:12;11.57;;;9.20;;
2177;SDS011;1095;50.992;6.798;2023-04-09T12:17:48;14.02;;;10.27;;
2177;SDS011;1095;50.992;6.798;2023-04-09T12:20:25;13.13;;;10.25;;
2177;SDS011;1095;50.992;6.798;2023-04-09T12:22:56;12.30;;;9.55;;
2177;SDS011;1095;50.992;6.798;2023-04-09T12:25:26;14.93;;;11.18;;
2177;SDS011;1095;50.992;6.798;2023-04-09T12:27:53;22.35;;;18.10;;
2177;SDS011;1095;50.992;6.798;2023-04-09T12:30:21;15.60;;;13.00;;
2177;SDS011;1095;50.992;6.798;2023-04-09T12:32:47;18.73;;;14.80;;
2177;SDS011;1095;50.992;6.798;2023-04-09T12:35:14;12.40;;;9.90;;
2177;SDS011;1095;50.992;6.798;2023-04-09T12:37:41;11.32;;;9.30;;
2177;SDS011;1095;50.992;6.798;2023-04-09T12:40:08;9.75;;;8.02;;
2177;SDS011;1095;50.992;6.798;2023-04-09T12:42:38;11.48;;;9.15;;
2177;SDS011;1095;50.992;6.798;2023-04-09T12:45:09;11.32;;;8.93;;
2177;SDS011;1095;50.992;6.798;2023-04-09T12:47:37;11.13;;;9.23;;
2177;SDS011;1095;50.992;6.798;2023-04-09T12:50:05;10.32;;;8.70;;
2177;SDS011;1095;50.992;6.798;2023-04-09T12:52:33;12.20;;;8.98;;
2177;SDS011;1095;50.992;6.798;2023-04-09T12:55:00;11.10;;;9.57;;
2177;SDS011;1095;50.992;6.798;2023-04-09T12:57:28;11.55;;;8.38;;
2177;SDS011;1095;50.992;6.798;2023-04-09T12:59:56;11.52;;;9.43;;
2177;SDS011;1095;50.992;6.798;2023-04-09T13:02:23;12.88;;;9.23;;
2177;SDS011;1095;50.992;6.798;2023-04-09T13:04:50;13.20;;;9.07;;
2177;SDS011;1095;50.992;6.798;2023-04-09T13:07:17;11.35;;;9.50;;
2177;SDS011;1095;50.992;6.798;2023-04-09T13:09:45;9.80;;;8.45;;
2177;SDS011;1095;50.992;6.798;2023-04-09T13:12:12;9.88;;;8.45;;
2177;SDS011;1095;50.992;6.798;2023-04-09T13:14:39;11.32;;;8.80;;
2177;SDS011;1095;50.992;6.798;2023-04-09T13:17:09;11.68;;;9.05;;
2177;SDS011;1095;50.992;6.798;2023-04-09T13:19:35;10.43;;;9.07;;
2177;SDS011;1095;50.992;6.798;2023-04-09T13:22:02;10.65;;;8.68;;
2177;SDS011;1095;50.992;6.798;2023-04-09T13:24:31;11.35;;;9.38;;
2177;SDS011;1095;50.992;6.798;2023-04-09T13:26:58;10.60;;;8.93;;
2177;SDS011;1095;50.992;6.798;2023-04-09T13:29:25;11.57;;;8.43;;
2177;SDS011;1095;50.992;6.798;2023-04-09T13:31:53;11.38;;;9.20;;
2177;SDS011;1095;50.992;6.798;2023-04-09T13:34:21;11.05;;;8.73;;
2177;SDS011;1095;50.992;6.798;2023-04-09T13:36:48;11.35;;;8.88;;
2177;SDS011;1095;50.992;6.798;2023-04-09T13:39:15;9.65;;;8.38;;
2177;SDS011;1095;50.992;6.798;2023-04-09T13:41:41;11.63;;;8.88;;
2177;SDS011;1095;50.992;6.798;2023-04-09T13:44:09;10.15;;;8.27;;
2177;SDS011;1095;50.992;6.798;2023-04-09T13:46:35;12.18;;;9.23;;
2177;SDS011;1095;50.992;6.798;2023-04-09T13:49:02;11.63;;;9.35;;
2177;SDS011;1095;50.992;6.798;2023-04-09T13:51:30;10.40;;;8.93;;
2177;SDS011;1095;50.992;6.798;2023-04-09T13:53:56;11.65;;;9.52;;
2177;SDS011;1095;50.992;6.798;2023-04-09T13:56:23;10.80;;;8.80;;
2177;SDS011;1095;50.992;6.798;2023-04-09T13:58:51;10.30;;;8.70;;
2177;SDS011;1095;50.992;6.798;2023-04-09T14:01:18;10.32;;;8.73;;
2177;SDS011;1095;50.992;6.798;2023-04-09T14:03:45;10.75;;;9.23;;
2177;SDS011;1095;50.992;6.798;2023-04-09T14:06:11;14.10;;;8.90;;
2177;SDS011;1095;50.992;6.798;2023-04-09T14:08:39;10.98;;;9.52;;
2177;SDS011;1095;50.992;6.798;2023-04-09T14:11:06;10.75;;;9.10;;
2177;SDS011;1095;50.992;6.798;2023-04-09T14:13:35;10.77;;;8.80;;
2177;SDS011;1095;50.992;6.798;2023-04-09T14:16:01;10.40;;;8.20;;
2177;SDS011;1095;50.992;6.798;2023-04-09T14:18:28;10.10;;;8.20;;
2177;SDS011;1095;50.992;6.798;2023-04-09T14:20:55;10.30;;;8.30;;
2177;SDS011;1095;50.992;6.798;2023-04-09T14:23:21;11.90;;;8.80;;
2177;SDS011;1095;50.992;6.798;2023-04-09T14:25:49;10.75;;;8.73;;
2177;SDS011;1095;50.992;6.798;2023-04-09T14:28:16;10.77;;;8.65;;
2177;SDS011;1095;50.992;6.798;2023-04-09T14:30:42;8.82;;;7.57;;
2177;SDS011;1095;50.992;6.798;2023-04-09T14:33:09;9.60;;;7.97;;
2177;SDS011;1095;50.992;6.798;2023-04-09T14:35:36;9.80;;;8.02;;
2177;SDS011;1095;50.992;6.798;2023-04-09T14:38:02;10.25;;;8.48;;
2177;SDS011;1095;50.992;6.798;2023-04-09T14:40:29;10.77;;;8.55;;
2177;SDS011;1095;50.992;6.798;2023-04-09T14:42:57;10.48;;;7.85;;
2177;SDS011;1095;50.992;6.798;2023-04-09T14:45:25;9.75;;;8.13;;
2177;SDS011;1095;50.992;6.798;2023-04-09T14:47:51;11.93;;;8.23;;
2177;SDS011;1095;50.992;6.798;2023-04-09T14:50:18;9.07;;;7.72;;
2177;SDS011;1095;50.992;6.798;2023-04-09T14:52:45;11.60;;;8.88;;
2177;SDS011;1095;50.992;6.798;2023-04-09T14:55:12;10.20;;;8.25;;
2177;SDS011;1095;50.992;6.798;2023-04-09T14:57:39;11.20;;;8.10;;
2177;SDS011;1095;50.992;6.798;2023-04-09T15:00:09;11.25;;;8.00;;